createdAt,value
2018-01-27T00:00:00.745Z,84.99
2018-01-27T00:00:26.870Z,84.89
2018-01-27T00:00:52.962Z,85.75
2018-01-27T00:01:19.081Z,85.56
2018-01-27T00:01:45.191Z,85.66
2018-01-27T00:02:11.282Z,85.75
2018-01-27T00:02:37.384Z,85.66
2018-01-27T00:03:03.485Z,85.75
2018-01-27T00:03:29.583Z,85.85
2018-01-27T00:03:55.679Z,85.85
2018-01-27T00:04:21.782Z,85.56
2018-01-27T00:04:47.922Z,85.75
2018-01-27T00:05:14.018Z,86.04
2018-01-27T00:05:40.122Z,86.04
2018-01-27T00:06:06.218Z,86.13
2018-01-27T00:06:32.319Z,86.04
2018-01-27T00:06:58.475Z,86.04
2018-01-27T00:07:24.625Z,86.13
2018-01-27T00:07:50.765Z,85.99
2018-01-27T00:08:16.861Z,85.94
2018-01-27T00:08:42.964Z,85.56
2018-01-27T00:09:09.060Z,85.37
2018-01-27T00:09:35.158Z,85.37
2018-01-27T00:10:01.264Z,85.37
2018-01-27T00:10:27.369Z,85.18
2018-01-27T00:10:53.467Z,84.89
2018-01-27T00:11:19.569Z,84.99
2018-01-27T00:11:45.665Z,84.8
2018-01-27T00:12:11.781Z,85.28
2018-01-27T00:12:37.892Z,85.08
2018-01-27T00:13:04.024Z,85.75
2018-01-27T00:13:30.121Z,85.37
2018-01-27T00:13:56.228Z,85.08
2018-01-27T00:14:22.328Z,85.08
2018-01-27T00:14:48.441Z,84.99
2018-01-27T00:15:14.544Z,85.18
2018-01-27T00:15:40.639Z,84.7
2018-01-27T00:16:06.745Z,85.37
2018-01-27T00:16:32.846Z,85.37
2018-01-27T00:16:58.945Z,85.18
2018-01-27T00:17:25.072Z,84.8
2018-01-27T00:17:51.169Z,85.37
2018-01-27T00:18:17.268Z,85.66
2018-01-27T00:18:43.390Z,86.22
2018-01-27T00:19:09.495Z,85.99
2018-01-27T00:19:35.599Z,86.47
2018-01-27T00:20:01.702Z,86.66
2018-01-27T00:20:27.794Z,86.66
2018-01-27T00:20:53.939Z,86.47
2018-01-27T00:21:20.083Z,87.13
2018-01-27T00:21:46.204Z,86.66
2018-01-27T00:22:12.316Z,86.57
2018-01-27T00:22:38.423Z,86.57
2018-01-27T00:23:04.550Z,86.85
2018-01-27T00:23:30.731Z,87.13
2018-01-27T00:23:56.821Z,87.23
2018-01-27T00:24:22.926Z,87.04
2018-01-27T00:24:49.026Z,87.8
2018-01-27T00:25:15.129Z,87.52
2018-01-27T00:25:41.234Z,87.52
2018-01-27T00:26:07.330Z,87.42
2018-01-27T00:26:33.427Z,87.42
2018-01-27T00:26:59.529Z,87.9
2018-01-27T00:27:25.674Z,87.32
2018-01-27T00:27:51.774Z,87.32
2018-01-27T00:28:17.878Z,87.61
2018-01-27T00:28:43.988Z,87.42
2018-01-27T00:29:10.093Z,87.32
2018-01-27T00:29:36.192Z,87.42
2018-01-27T00:30:02.316Z,87.9
2018-01-27T00:30:28.418Z,87.32
2018-01-27T00:30:54.521Z,87.61
2018-01-27T00:31:20.626Z,87.71
2018-01-27T00:31:46.756Z,87.99
2018-01-27T00:32:12.882Z,87.71
2018-01-27T00:32:39.274Z,87.52
2018-01-27T00:33:05.397Z,87.42
2018-01-27T00:33:31.502Z,87.8
2018-01-27T00:33:57.594Z,87.42
2018-01-27T00:34:23.698Z,88.09
2018-01-27T00:34:49.795Z,88.18
2018-01-27T00:35:15.901Z,87.52
2018-01-27T00:35:42.005Z,87.9
2018-01-27T00:36:08.113Z,88.09
2018-01-27T00:36:34.220Z,88.18
2018-01-27T00:37:00.336Z,87.99
2018-01-27T00:37:26.467Z,87.9
2018-01-27T00:37:52.581Z,87.71
2018-01-27T00:38:18.718Z,87.52
2018-01-27T00:38:44.820Z,87.9
2018-01-27T00:39:10.922Z,87.9
2018-01-27T00:39:37.025Z,87.8
2018-01-27T00:40:03.123Z,87.71
2018-01-27T00:40:29.230Z,87.99
2018-01-27T00:40:55.327Z,87.9
2018-01-27T00:41:21.442Z,87.8
2018-01-27T00:41:47.546Z,88.09
2018-01-27T00:42:13.646Z,87.9
2018-01-27T00:42:39.749Z,88.18
2018-01-27T00:43:05.851Z,87.61
2018-01-27T00:43:31.968Z,87.71
2018-01-27T00:43:58.062Z,87.71
2018-01-27T00:44:24.170Z,87.99
2018-01-27T00:44:50.273Z,87.71
2018-01-27T00:45:16.371Z,88.09
2018-01-27T00:45:42.542Z,87.71
2018-01-27T00:46:08.638Z,87.9
2018-01-27T00:46:34.744Z,88.66
2018-01-27T00:47:00.846Z,88.37
2018-01-27T00:47:26.965Z,88.46
2018-01-27T00:47:53.068Z,87.99
2018-01-27T00:48:19.167Z,88.28
2018-01-27T00:48:45.264Z,88.46
2018-01-27T00:49:11.368Z,88.28
2018-01-27T00:49:37.473Z,87.8
2018-01-27T00:50:03.656Z,87.8
2018-01-27T00:50:29.755Z,87.9
2018-01-27T00:50:55.861Z,87.52
2018-01-27T00:51:21.977Z,88.09
2018-01-27T00:51:48.094Z,87.9
2018-01-27T00:52:14.190Z,87.52
2018-01-27T00:52:40.294Z,88.75
2018-01-27T00:53:06.400Z,88.09
2018-01-27T00:53:32.496Z,87.99
2018-01-27T00:53:58.622Z,88.09
2018-01-27T00:54:24.755Z,87.99
2018-01-27T00:54:50.881Z,87.99
2018-01-27T00:55:16.981Z,88.09
2018-01-27T00:55:43.085Z,87.99
2018-01-27T00:56:09.185Z,87.85
2018-01-27T00:56:35.282Z,88.23
2018-01-27T00:57:01.390Z,87.9
2018-01-27T00:57:27.485Z,88.66
2018-01-27T00:57:53.592Z,88.42
2018-01-27T00:58:19.691Z,88.37
2018-01-27T00:58:45.839Z,88.9
2018-01-27T00:59:11.943Z,88.8
2018-01-27T00:59:38.066Z,89.09
2018-01-27T01:00:04.165Z,89.37
2018-01-27T01:00:30.273Z,89.14
2018-01-27T01:00:56.376Z,88.46
2018-01-27T01:01:22.471Z,88.75
2018-01-27T01:01:48.578Z,88.85
2018-01-27T01:02:14.675Z,88.56
2018-01-27T01:02:40.792Z,88.66
2018-01-27T01:03:06.947Z,88.71
2018-01-27T01:03:33.065Z,88.46
2018-01-27T01:03:59.165Z,89.32
2018-01-27T01:04:25.266Z,89.09
2018-01-27T01:04:51.368Z,89.66
2018-01-27T01:05:17.467Z,89.66
2018-01-27T01:05:43.579Z,89.75
2018-01-27T01:06:09.683Z,90.23
2018-01-27T01:06:35.829Z,89.89
2018-01-27T01:07:01.941Z,89.42
2018-01-27T01:07:28.037Z,89.8
2018-01-27T01:07:54.135Z,89.23
2018-01-27T01:08:20.238Z,89.04
2018-01-27T01:08:46.344Z,88.75
2018-01-27T01:09:12.530Z,88.85
2018-01-27T01:09:38.622Z,88.18
2018-01-27T01:10:04.726Z,88.37
2018-01-27T01:10:30.827Z,88.37
2018-01-27T01:10:56.941Z,88.46
2018-01-27T01:11:23.068Z,88.71
2018-01-27T01:11:49.185Z,89.14
2018-01-27T01:12:15.286Z,89.18
2018-01-27T01:12:41.381Z,89.37
2018-01-27T01:13:07.523Z,89.37
2018-01-27T01:13:33.625Z,89.66
2018-01-27T01:13:59.727Z,89.56
2018-01-27T01:14:25.822Z,89.42
2018-01-27T01:14:51.922Z,89.7
2018-01-27T01:15:18.038Z,88.85
2018-01-27T01:15:44.135Z,89.09
2018-01-27T01:16:10.242Z,89.14
2018-01-27T01:16:36.342Z,89.18
2018-01-27T01:17:02.439Z,89.66
2018-01-27T01:17:28.546Z,89.47
2018-01-27T01:17:54.640Z,89.47
2018-01-27T01:18:20.754Z,89.42
2018-01-27T01:18:46.859Z,89.51
2018-01-27T01:19:12.958Z,89.51
2018-01-27T01:19:39.062Z,89.61
2018-01-27T01:20:05.159Z,89.89
2018-01-27T01:20:31.265Z,89.99
2018-01-27T01:20:57.367Z,89.47
2018-01-27T01:21:23.464Z,89.23
2018-01-27T01:21:49.570Z,88.8
2018-01-27T01:22:15.683Z,89
2018-01-27T01:22:41.795Z,88.9
2018-01-27T01:23:07.941Z,88.8
2018-01-27T01:23:34.044Z,89.14
2018-01-27T01:24:00.142Z,89.32
2018-01-27T01:24:26.252Z,88.56
2018-01-27T01:24:52.360Z,88.56
2018-01-27T01:25:18.486Z,88.52
2018-01-27T01:25:44.582Z,88.42
2018-01-27T01:26:10.688Z,88.61
2018-01-27T01:26:36.783Z,89.04
2018-01-27T01:27:02.888Z,88.66
2018-01-27T01:27:28.987Z,88.66
2018-01-27T01:27:55.087Z,88.85
2018-01-27T01:28:21.381Z,88.56
2018-01-27T01:28:47.471Z,88.66
2018-01-27T01:29:13.582Z,88.56
2018-01-27T01:29:39.684Z,88.56
2018-01-27T01:30:05.785Z,87.8
2018-01-27T01:30:31.888Z,88.28
2018-01-27T01:30:57.989Z,88.37
2018-01-27T01:31:24.112Z,88.56
2018-01-27T01:31:50.201Z,88.09
2018-01-27T01:32:16.309Z,88.09
2018-01-27T01:32:42.406Z,88.75
2018-01-27T01:33:08.506Z,88.46
2018-01-27T01:33:34.615Z,88.28
2018-01-27T01:34:00.707Z,88.37
2018-01-27T01:34:26.810Z,88.28
2018-01-27T01:34:52.911Z,88.66
2018-01-27T01:35:19.021Z,88.37
2018-01-27T01:35:45.147Z,88.75
2018-01-27T01:36:11.279Z,88.56
2018-01-27T01:36:37.376Z,88.66
2018-01-27T01:37:03.476Z,88.46
2018-01-27T01:37:29.572Z,88.56
2018-01-27T01:37:55.677Z,88.75
2018-01-27T01:38:21.780Z,87.99
2018-01-27T01:38:47.879Z,88.18
2018-01-27T01:39:13.978Z,88.37
2018-01-27T01:39:40.084Z,87.71
2018-01-27T01:40:06.200Z,87.99
2018-01-27T01:40:32.302Z,87.71
2018-01-27T01:40:58.402Z,87.8
2018-01-27T01:41:24.518Z,88.13
2018-01-27T01:41:50.622Z,87.52
2018-01-27T01:42:16.718Z,87.75
2018-01-27T01:42:42.826Z,87.37
2018-01-27T01:43:08.922Z,87.46
2018-01-27T01:43:35.022Z,87.32
2018-01-27T01:44:01.146Z,87.27
2018-01-27T01:44:27.255Z,87.56
2018-01-27T01:44:53.360Z,87.37
2018-01-27T01:45:19.500Z,87.56
2018-01-27T01:45:45.589Z,86.61
2018-01-27T01:46:11.711Z,86.51
2018-01-27T01:46:37.806Z,86.9
2018-01-27T01:47:03.905Z,86.61
2018-01-27T01:47:30.027Z,86.99
2018-01-27T01:47:56.144Z,86.61
2018-01-27T01:48:22.245Z,86.9
2018-01-27T01:48:48.349Z,86.7
2018-01-27T01:49:14.447Z,86.61
2018-01-27T01:49:40.556Z,87.27
2018-01-27T01:50:06.663Z,86.8
2018-01-27T01:50:32.770Z,87.18
2018-01-27T01:50:58.881Z,86.8
2018-01-27T01:51:24.992Z,87.18
2018-01-27T01:51:51.090Z,86.7
2018-01-27T01:52:17.208Z,86.8
2018-01-27T01:52:43.306Z,87.27
2018-01-27T01:53:09.421Z,86.57
2018-01-27T01:53:35.525Z,87.13
2018-01-27T01:54:01.620Z,87.42
2018-01-27T01:54:27.719Z,87.32
2018-01-27T01:54:53.839Z,87.71
2018-01-27T01:55:19.942Z,87.9
2018-01-27T01:55:46.048Z,87.9
2018-01-27T01:56:12.144Z,88.46
2018-01-27T01:56:38.245Z,88.09
2018-01-27T01:57:04.351Z,88.37
2018-01-27T01:57:30.449Z,88.66
2018-01-27T01:57:56.552Z,88.75
2018-01-27T01:58:22.652Z,89.04
2018-01-27T01:58:48.753Z,89.61
2018-01-27T01:59:14.855Z,89.89
2018-01-27T01:59:40.951Z,89.61
2018-01-27T02:00:07.056Z,89.51
2018-01-27T02:00:33.154Z,89.61
2018-01-27T02:00:59.253Z,89.7
2018-01-27T02:01:25.354Z,89.42
2018-01-27T02:01:51.459Z,89.42
2018-01-27T02:02:17.557Z,89.04
2018-01-27T02:02:43.655Z,88.94
2018-01-27T02:03:09.760Z,89.14
2018-01-27T02:03:35.856Z,88.85
2018-01-27T02:04:01.961Z,88.94
2018-01-27T02:04:28.081Z,88.75
2018-01-27T02:04:54.181Z,88.75
2018-01-27T02:05:20.296Z,88.66
2018-01-27T02:05:46.398Z,88.75
2018-01-27T02:06:12.503Z,88.75
2018-01-27T02:06:38.600Z,89.14
2018-01-27T02:07:04.704Z,89.32
2018-01-27T02:07:30.800Z,89.04
2018-01-27T02:07:56.906Z,89.23
2018-01-27T02:08:23.007Z,89.14
2018-01-27T02:08:49.104Z,89.51
2018-01-27T02:09:15.208Z,89.42
2018-01-27T02:09:41.313Z,89.42
2018-01-27T02:10:07.408Z,89.42
2018-01-27T02:10:33.526Z,89.42
2018-01-27T02:10:59.628Z,89.89
2018-01-27T02:11:25.724Z,90.08
2018-01-27T02:11:51.827Z,90.18
2018-01-27T02:12:17.926Z,90.08
2018-01-27T02:12:44.026Z,90.18
2018-01-27T02:13:10.124Z,90.28
2018-01-27T02:13:36.221Z,90.66
2018-01-27T02:14:02.325Z,90.94
2018-01-27T02:14:28.423Z,90.42
2018-01-27T02:14:54.529Z,90.52
2018-01-27T02:15:20.648Z,90.99
2018-01-27T02:15:46.748Z,91.08
2018-01-27T02:16:12.854Z,91.37
2018-01-27T02:16:38.957Z,91.18
2018-01-27T02:17:05.064Z,91.37
2018-01-27T02:17:31.167Z,92.03
2018-01-27T02:17:57.262Z,92.03
2018-01-27T02:18:23.363Z,91.75
2018-01-27T02:18:49.465Z,91.75
2018-01-27T02:19:15.566Z,91.85
2018-01-27T02:19:41.667Z,91.37
2018-01-27T02:20:07.766Z,91.28
2018-01-27T02:20:33.865Z,91.75
2018-01-27T02:20:59.965Z,92.03
2018-01-27T02:21:26.071Z,91.75
2018-01-27T02:21:52.174Z,92.22
2018-01-27T02:22:18.297Z,92.22
2018-01-27T02:22:44.398Z,91.94
2018-01-27T02:23:10.501Z,91.85
2018-01-27T02:23:36.630Z,91.94
2018-01-27T02:24:02.736Z,92.32
2018-01-27T02:24:28.835Z,91.85
2018-01-27T02:24:54.936Z,92.41
2018-01-27T02:25:21.039Z,92.13
2018-01-27T02:25:47.133Z,92.32
2018-01-27T02:26:13.233Z,92.41
2018-01-27T02:26:39.335Z,92.7
2018-01-27T02:27:05.438Z,92.51
2018-01-27T02:27:31.537Z,92.61
2018-01-27T02:27:57.640Z,92.22
2018-01-27T02:28:23.745Z,92.22
2018-01-27T02:28:49.848Z,92.22
2018-01-27T02:29:15.944Z,92.7
2018-01-27T02:29:42.051Z,92.13
2018-01-27T02:30:08.154Z,92.13
2018-01-27T02:30:34.246Z,92.7
2018-01-27T02:31:00.351Z,92.61
2018-01-27T02:31:26.443Z,92.32
2018-01-27T02:31:52.559Z,92.22
2018-01-27T02:32:18.684Z,92.22
2018-01-27T02:32:44.780Z,92.46
2018-01-27T02:33:10.889Z,91.8
2018-01-27T02:33:36.987Z,91.75
2018-01-27T02:34:03.085Z,91.66
2018-01-27T02:34:29.188Z,92.32
2018-01-27T02:34:55.290Z,92.22
2018-01-27T02:35:21.401Z,92.51
2018-01-27T02:35:47.501Z,92.56
2018-01-27T02:36:13.606Z,92.13
2018-01-27T02:36:39.700Z,91.85
2018-01-27T02:37:05.806Z,91.8
2018-01-27T02:37:31.902Z,91.61
2018-01-27T02:37:58.007Z,91.42
2018-01-27T02:38:24.125Z,91.37
2018-01-27T02:38:50.237Z,91.51
2018-01-27T02:39:16.325Z,91.28
2018-01-27T02:39:42.425Z,91.7
2018-01-27T02:40:08.543Z,91.8
2018-01-27T02:40:34.642Z,91.51
2018-01-27T02:41:00.741Z,91.32
2018-01-27T02:41:26.848Z,91.85
2018-01-27T02:41:52.954Z,91.94
2018-01-27T02:42:19.051Z,92.46
2018-01-27T02:42:45.151Z,92.46
2018-01-27T02:43:11.257Z,91.99
2018-01-27T02:43:37.360Z,92.08
2018-01-27T02:44:03.463Z,91.42
2018-01-27T02:44:29.555Z,91.42
2018-01-27T02:44:55.697Z,92.08
2018-01-27T02:45:21.810Z,91.66
2018-01-27T02:45:47.906Z,91.94
2018-01-27T02:46:14.007Z,91.85
2018-01-27T02:46:40.137Z,92.41
2018-01-27T02:47:06.232Z,92.41
2018-01-27T02:47:32.333Z,92.13
2018-01-27T02:47:58.435Z,92.89
2018-01-27T02:48:24.536Z,92.61
2018-01-27T02:48:50.636Z,92.13
2018-01-27T02:49:16.735Z,92.8
2018-01-27T02:49:42.836Z,92.8
2018-01-27T02:50:08.935Z,92.89
2018-01-27T02:50:35.036Z,92.8
2018-01-27T02:51:01.137Z,92.99
2018-01-27T02:51:27.228Z,92.7
2018-01-27T02:51:53.332Z,93.08
2018-01-27T02:52:19.440Z,92.41
2018-01-27T02:52:45.544Z,93.08
2018-01-27T02:53:11.659Z,92.32
2018-01-27T02:53:37.765Z,92.89
2018-01-27T02:54:03.860Z,92.99
2018-01-27T02:54:29.978Z,92.8
2018-01-27T02:54:56.073Z,92.7
2018-01-27T02:55:22.177Z,92.99
2018-01-27T02:55:48.280Z,92.8
2018-01-27T02:56:14.374Z,92.13
2018-01-27T02:56:40.477Z,92.7
2018-01-27T02:57:06.603Z,92.7
2018-01-27T02:57:32.702Z,92.89
2018-01-27T02:57:58.798Z,93.27
2018-01-27T02:58:24.905Z,93.08
2018-01-27T02:58:51.004Z,92.84
2018-01-27T02:59:17.110Z,92.51
2018-01-27T02:59:43.210Z,92.18
2018-01-27T03:00:09.307Z,92.32
2018-01-27T03:00:35.413Z,92.65
2018-01-27T03:01:01.510Z,92.08
2018-01-27T03:01:27.610Z,92.08
2018-01-27T03:01:53.707Z,92.13
2018-01-27T03:02:19.814Z,92.18
2018-01-27T03:02:45.914Z,92.65
2018-01-27T03:03:12.012Z,92.94
2018-01-27T03:03:38.136Z,92.51
2018-01-27T03:04:04.236Z,93.04
2018-01-27T03:04:30.340Z,93.32
2018-01-27T03:04:56.439Z,92.75
2018-01-27T03:05:22.556Z,92.75
2018-01-27T03:05:48.668Z,92.46
2018-01-27T03:06:14.767Z,92.18
2018-01-27T03:06:40.871Z,91.89
2018-01-27T03:07:06.972Z,91.99
2018-01-27T03:07:33.089Z,92.08
2018-01-27T03:07:59.194Z,92.08
2018-01-27T03:08:25.292Z,92.08
2018-01-27T03:08:51.408Z,92.18
2018-01-27T03:09:17.513Z,92.27
2018-01-27T03:09:43.611Z,91.99
2018-01-27T03:10:09.707Z,91.99
2018-01-27T03:10:35.813Z,92.27
2018-01-27T03:11:01.912Z,91.89
2018-01-27T03:11:28.017Z,91.89
2018-01-27T03:11:54.120Z,91.99
2018-01-27T03:12:20.218Z,91.89
2018-01-27T03:12:46.345Z,92.18
2018-01-27T03:13:12.440Z,92.36
2018-01-27T03:13:38.545Z,91.8
2018-01-27T03:14:04.668Z,91.61
2018-01-27T03:14:30.763Z,91.42
2018-01-27T03:14:56.866Z,91.42
2018-01-27T03:15:22.961Z,91.51
2018-01-27T03:15:49.054Z,91.42
2018-01-27T03:16:15.158Z,91.61
2018-01-27T03:16:41.260Z,91.7
2018-01-27T03:17:07.376Z,91.89
2018-01-27T03:17:33.480Z,92.36
2018-01-27T03:17:59.582Z,92.13
2018-01-27T03:18:25.688Z,92.8
2018-01-27T03:18:51.784Z,93.27
2018-01-27T03:19:17.902Z,93.18
2018-01-27T03:19:44.011Z,93.18
2018-01-27T03:20:10.114Z,93.23
2018-01-27T03:20:36.213Z,92.41
2018-01-27T03:21:02.311Z,92.61
2018-01-27T03:21:28.417Z,92.41
2018-01-27T03:21:54.514Z,92.7
2018-01-27T03:22:20.617Z,93.08
2018-01-27T03:22:46.719Z,92.89
2018-01-27T03:23:12.821Z,92.56
2018-01-27T03:23:38.925Z,92.65
2018-01-27T03:24:05.022Z,93.13
2018-01-27T03:24:31.125Z,92.84
2018-01-27T03:24:57.225Z,92.7
2018-01-27T03:25:23.379Z,92.61
2018-01-27T03:25:49.442Z,92.41
2018-01-27T03:26:15.539Z,92.99
2018-01-27T03:26:41.648Z,92.99
2018-01-27T03:27:07.747Z,92.89
2018-01-27T03:27:33.842Z,93.13
2018-01-27T03:27:59.945Z,93.32
2018-01-27T03:28:26.049Z,92.75
2018-01-27T03:28:52.166Z,92.65
2018-01-27T03:29:18.278Z,92.94
2018-01-27T03:29:44.373Z,92.75
2018-01-27T03:30:10.497Z,92.94
2018-01-27T03:30:36.602Z,92.46
2018-01-27T03:31:02.705Z,92.75
2018-01-27T03:31:28.802Z,92.75
2018-01-27T03:31:54.910Z,92.84
2018-01-27T03:32:21.004Z,92.75
2018-01-27T03:32:47.105Z,92.84
2018-01-27T03:33:13.227Z,92.84
2018-01-27T03:33:39.327Z,92.89
2018-01-27T03:34:05.429Z,92.84
2018-01-27T03:34:31.526Z,93.04
2018-01-27T03:34:57.626Z,92.84
2018-01-27T03:35:23.724Z,92.89
2018-01-27T03:35:49.827Z,92.84
2018-01-27T03:36:15.933Z,92.84
2018-01-27T03:36:42.030Z,92.84
2018-01-27T03:37:08.136Z,92.51
2018-01-27T03:37:34.232Z,92.7
2018-01-27T03:38:00.334Z,92.7
2018-01-27T03:38:26.436Z,93.27
2018-01-27T03:38:52.543Z,93.08
2018-01-27T03:39:18.648Z,93.55
2018-01-27T03:39:44.747Z,92.99
2018-01-27T03:40:10.844Z,93.37
2018-01-27T03:40:36.956Z,93.46
2018-01-27T03:41:03.053Z,93.18
2018-01-27T03:41:29.168Z,93.37
2018-01-27T03:41:55.275Z,93.55
2018-01-27T03:42:21.375Z,93.27
2018-01-27T03:42:47.478Z,93.27
2018-01-27T03:43:13.575Z,93.65
2018-01-27T03:43:39.697Z,94.32
2018-01-27T03:44:05.794Z,94.22
2018-01-27T03:44:31.917Z,94.03
2018-01-27T03:44:58.015Z,94.03
2018-01-27T03:45:24.114Z,94.42
2018-01-27T03:45:50.220Z,93.94
2018-01-27T03:46:16.318Z,94.03
2018-01-27T03:46:42.424Z,93.94
2018-01-27T03:47:08.529Z,94.03
2018-01-27T03:47:34.624Z,94.32
2018-01-27T03:48:00.732Z,93.94
2018-01-27T03:48:26.827Z,94.32
2018-01-27T03:48:52.923Z,94.32
2018-01-27T03:49:19.027Z,94.42
2018-01-27T03:49:45.130Z,93.84
2018-01-27T03:50:11.222Z,94.22
2018-01-27T03:50:37.332Z,93.84
2018-01-27T03:51:03.428Z,93.84
2018-01-27T03:51:29.538Z,93.84
2018-01-27T03:51:55.637Z,94.03
2018-01-27T03:52:21.738Z,93.94
2018-01-27T03:52:47.832Z,93.75
2018-01-27T03:53:13.935Z,93.46
2018-01-27T03:53:40.033Z,93.75
2018-01-27T03:54:06.140Z,93.46
2018-01-27T03:54:32.253Z,93.37
2018-01-27T03:54:58.370Z,93.65
2018-01-27T03:55:24.477Z,93.6
2018-01-27T03:55:50.576Z,93.46
2018-01-27T03:56:16.672Z,93.41
2018-01-27T03:56:42.771Z,93.08
2018-01-27T03:57:08.869Z,93.46
2018-01-27T03:57:34.977Z,93.04
2018-01-27T03:58:01.073Z,93.27
2018-01-27T03:58:27.181Z,93.18
2018-01-27T03:58:53.285Z,93.37
2018-01-27T03:59:19.382Z,93.51
2018-01-27T03:59:45.481Z,92.75
2018-01-27T04:00:11.603Z,92.7
2018-01-27T04:00:37.701Z,92.94
2018-01-27T04:01:03.802Z,92.94
2018-01-27T04:01:29.901Z,93.08
2018-01-27T04:01:56.003Z,92.89
2018-01-27T04:02:22.118Z,92.89
2018-01-27T04:02:48.229Z,93.18
2018-01-27T04:03:14.321Z,92.99
2018-01-27T04:03:40.424Z,93.55
2018-01-27T04:04:06.526Z,93.46
2018-01-27T04:04:32.624Z,93.46
2018-01-27T04:04:58.729Z,93.18
2018-01-27T04:05:24.832Z,93.18
2018-01-27T04:05:50.928Z,93.27
2018-01-27T04:06:17.027Z,93.27
2018-01-27T04:06:43.130Z,93.32
2018-01-27T04:07:09.230Z,93.41
2018-01-27T04:07:35.334Z,92.94
2018-01-27T04:08:01.436Z,93.46
2018-01-27T04:08:27.541Z,93.37
2018-01-27T04:08:53.645Z,93.08
2018-01-27T04:09:19.738Z,93.6
2018-01-27T04:09:45.847Z,93.41
2018-01-27T04:10:11.944Z,93.75
2018-01-27T04:10:38.039Z,93.7
2018-01-27T04:11:04.144Z,93.55
2018-01-27T04:11:30.241Z,92.99
2018-01-27T04:11:56.346Z,92.99
2018-01-27T04:12:22.447Z,93.37
2018-01-27T04:12:48.554Z,93.18
2018-01-27T04:13:14.649Z,93.27
2018-01-27T04:13:40.752Z,93.46
2018-01-27T04:14:06.849Z,93.65
2018-01-27T04:14:32.951Z,93.55
2018-01-27T04:14:59.048Z,93.55
2018-01-27T04:15:25.148Z,93.18
2018-01-27T04:15:51.250Z,93.65
2018-01-27T04:16:17.385Z,93.84
2018-01-27T04:16:43.489Z,93.84
2018-01-27T04:17:09.584Z,93.84
2018-01-27T04:17:35.690Z,93.55
2018-01-27T04:18:01.783Z,93.84
2018-01-27T04:18:27.881Z,93.46
2018-01-27T04:18:53.987Z,93.46
2018-01-27T04:19:20.081Z,93.75
2018-01-27T04:19:46.182Z,93.55
2018-01-27T04:20:12.288Z,93.55
2018-01-27T04:20:38.388Z,93.46
2018-01-27T04:21:04.489Z,93.46
2018-01-27T04:21:30.589Z,93.18
2018-01-27T04:21:56.692Z,93.46
2018-01-27T04:22:22.796Z,93.65
2018-01-27T04:22:48.898Z,93.46
2018-01-27T04:23:14.993Z,93.37
2018-01-27T04:23:41.098Z,93.27
2018-01-27T04:24:07.198Z,93.55
2018-01-27T04:24:33.296Z,92.99
2018-01-27T04:24:59.403Z,92.89
2018-01-27T04:25:25.502Z,93.18
2018-01-27T04:25:51.609Z,92.22
2018-01-27T04:26:17.705Z,92.7
2018-01-27T04:26:43.809Z,92.13
2018-01-27T04:27:09.905Z,93.13
2018-01-27T04:27:36.027Z,93.08
2018-01-27T04:28:02.129Z,93.08
2018-01-27T04:28:28.227Z,93.18
2018-01-27T04:28:54.326Z,93.08
2018-01-27T04:29:20.429Z,93.08
2018-01-27T04:29:46.527Z,93.08
2018-01-27T04:30:12.631Z,93.08
2018-01-27T04:30:38.756Z,92.89
2018-01-27T04:31:04.831Z,93.27
2018-01-27T04:31:30.934Z,93.37
2018-01-27T04:31:57.032Z,92.7
2018-01-27T04:32:23.130Z,92.99
2018-01-27T04:32:49.239Z,93.65
2018-01-27T04:33:15.342Z,93.18
2018-01-27T04:33:41.441Z,93.27
2018-01-27T04:34:07.546Z,92.99
2018-01-27T04:34:33.642Z,93.27
2018-01-27T04:34:59.740Z,93.75
2018-01-27T04:35:25.863Z,92.99
2018-01-27T04:35:51.964Z,93.46
2018-01-27T04:36:18.062Z,93.46
2018-01-27T04:36:44.168Z,93.75
2018-01-27T04:37:10.272Z,93.27
2018-01-27T04:37:36.369Z,93.46
2018-01-27T04:38:02.470Z,93.65
2018-01-27T04:38:28.569Z,93.27
2018-01-27T04:38:54.672Z,93.08
2018-01-27T04:39:20.783Z,93.46
2018-01-27T04:39:46.874Z,93.37
2018-01-27T04:40:12.972Z,93.27
2018-01-27T04:40:39.075Z,93.37
2018-01-27T04:41:05.169Z,93.46
2018-01-27T04:41:31.274Z,93.55
2018-01-27T04:41:57.379Z,93.08
2018-01-27T04:42:23.482Z,93.18
2018-01-27T04:42:49.578Z,92.99
2018-01-27T04:43:15.685Z,93.27
2018-01-27T04:43:41.805Z,92.8
2018-01-27T04:44:07.906Z,92.99
2018-01-27T04:44:34.011Z,92.89
2018-01-27T04:45:00.106Z,93.27
2018-01-27T04:45:26.203Z,92.22
2018-01-27T04:45:52.302Z,92.41
2018-01-27T04:46:18.401Z,92.89
2018-01-27T04:46:44.504Z,92.41
2018-01-27T04:47:10.611Z,92.51
2018-01-27T04:47:36.726Z,92.41
2018-01-27T04:48:02.831Z,92.89
2018-01-27T04:48:28.932Z,92.51
2018-01-27T04:48:55.031Z,92.89
2018-01-27T04:49:21.149Z,92.89
2018-01-27T04:49:47.247Z,92.75
2018-01-27T04:50:13.351Z,92.7
2018-01-27T04:50:39.468Z,92.89
2018-01-27T04:51:05.564Z,92.99
2018-01-27T04:51:31.678Z,92.8
2018-01-27T04:51:57.780Z,92.7
2018-01-27T04:52:23.880Z,93.08
2018-01-27T04:52:49.983Z,92.8
2018-01-27T04:53:16.083Z,93.55
2018-01-27T04:53:42.187Z,92.99
2018-01-27T04:54:08.284Z,93.65
2018-01-27T04:54:34.389Z,93.46
2018-01-27T04:55:00.490Z,93.27
2018-01-27T04:55:26.606Z,93.37
2018-01-27T04:55:52.707Z,93.65
2018-01-27T04:56:18.814Z,93.84
2018-01-27T04:56:44.928Z,93.84
2018-01-27T04:57:11.028Z,93.84
2018-01-27T04:57:37.131Z,93.65
2018-01-27T04:58:03.250Z,93.55
2018-01-27T04:58:29.353Z,93.27
2018-01-27T04:58:55.445Z,93.46
2018-01-27T04:59:21.546Z,93.46
2018-01-27T04:59:47.651Z,93.65
2018-01-27T05:00:13.748Z,93.37
2018-01-27T05:00:39.849Z,93.37
2018-01-27T05:01:05.955Z,92.7
2018-01-27T05:01:32.054Z,92.8
2018-01-27T05:01:58.165Z,92.89
2018-01-27T05:02:24.261Z,92.99
2018-01-27T05:02:50.360Z,93.08
2018-01-27T05:03:16.469Z,93.08
2018-01-27T05:03:42.568Z,92.13
2018-01-27T05:04:08.695Z,92.41
2018-01-27T05:04:34.795Z,92.8
2018-01-27T05:05:00.899Z,92.89
2018-01-27T05:05:27.001Z,93.08
2018-01-27T05:05:53.106Z,92.84
2018-01-27T05:06:19.207Z,92.89
2018-01-27T05:06:45.303Z,92.8
2018-01-27T05:07:11.406Z,93.04
2018-01-27T05:07:37.507Z,92.65
2018-01-27T05:08:03.610Z,92.89
2018-01-27T05:08:29.715Z,92.84
2018-01-27T05:08:55.816Z,92.8
2018-01-27T05:09:21.915Z,92.36
2018-01-27T05:09:48.018Z,92.18
2018-01-27T05:10:14.116Z,92.46
2018-01-27T05:10:40.211Z,92.61
2018-01-27T05:11:06.316Z,92.32
2018-01-27T05:11:32.412Z,92.56
2018-01-27T05:11:58.520Z,91.94
2018-01-27T05:12:24.624Z,92.51
2018-01-27T05:12:50.722Z,92.36
2018-01-27T05:13:16.825Z,92.65
2018-01-27T05:13:42.924Z,92.94
2018-01-27T05:14:09.021Z,92.61
2018-01-27T05:14:35.127Z,92.8
2018-01-27T05:15:01.226Z,92.7
2018-01-27T05:15:27.321Z,92.8
2018-01-27T05:15:53.421Z,92.56
2018-01-27T05:16:19.525Z,92.8
2018-01-27T05:16:45.645Z,92.8
2018-01-27T05:17:11.758Z,92.56
2018-01-27T05:17:37.862Z,93.04
2018-01-27T05:18:03.959Z,92.75
2018-01-27T05:18:30.064Z,92.94
2018-01-27T05:18:56.158Z,92.99
2018-01-27T05:19:22.262Z,92.8
2018-01-27T05:19:48.358Z,92.8
2018-01-27T05:20:14.464Z,92.94
2018-01-27T05:20:40.564Z,92.65
2018-01-27T05:21:06.661Z,92.61
2018-01-27T05:21:32.771Z,92.94
2018-01-27T05:21:58.867Z,93.04
2018-01-27T05:22:24.965Z,92.99
2018-01-27T05:22:51.064Z,91.99
2018-01-27T05:23:17.166Z,93.04
2018-01-27T05:23:43.265Z,92.65
2018-01-27T05:24:09.369Z,92.27
2018-01-27T05:24:35.467Z,92.08
2018-01-27T05:25:01.568Z,92.56
2018-01-27T05:25:27.670Z,92.36
2018-01-27T05:25:53.816Z,92.46
2018-01-27T05:26:19.919Z,92.94
2018-01-27T05:26:46.019Z,92.94
2018-01-27T05:27:12.134Z,92.36
2018-01-27T05:27:38.239Z,92.36
2018-01-27T05:28:04.337Z,92.46
2018-01-27T05:28:30.441Z,92.75
2018-01-27T05:28:56.546Z,92.75
2018-01-27T05:29:22.645Z,92.27
2018-01-27T05:29:48.750Z,92.18
2018-01-27T05:30:14.862Z,92.46
2018-01-27T05:30:40.973Z,92.46
2018-01-27T05:31:07.090Z,92.18
2018-01-27T05:31:33.188Z,92.18
2018-01-27T05:31:59.302Z,92.36
2018-01-27T05:32:25.443Z,92.27
2018-01-27T05:32:51.508Z,92.27
2018-01-27T05:33:17.608Z,92.46
2018-01-27T05:33:43.712Z,92.27
2018-01-27T05:34:09.813Z,91.99
2018-01-27T05:34:35.915Z,92.18
2018-01-27T05:35:02.017Z,92.18
2018-01-27T05:35:28.113Z,92.18
2018-01-27T05:35:54.242Z,92.27
2018-01-27T05:36:20.313Z,92.27
2018-01-27T05:36:46.411Z,92.32
2018-01-27T05:37:12.549Z,92.51